Sheffield Township, Ohio
Current Conditions -  °F | °C
As of 8:53 AM on Thursday 30 Oct 2014 (Local Time) from KLPR Reporting Station
Overcast Overcast  
Wind Chill: 41°   Ceiling: 4600
Heat Index: 41°   Visibility: 10mi
Dew Point: 39°   Wind: 3mph
Humidity: 93%   Direction: 290°WNW
Pressure: 30.13"   Gusts: NA
Location:  41.465°N, 82.0929°W
Report Text: KLPR 301253Z AUTO 29003KT 10SM FEW025 OVC046 05/04 A3013 RMK AO2 SLP209 T00500039 TSNO
Loading
Personal Weather Stations






























Interactive Weather Map
Tropical Storm Tracking
New forecast layout! Learn more

10-Day Weather Forecast

Advertisements
Track Severe Weather on mobile